FALA

Lanseria Airport

Johannesburg, South Africa
TAF FALA 181600Z 1818/1918 01005KT CAVOK BECMG 1818/1820 VRB03KT TX16/1912Z TN03/1904Z
Issued Valid From Valid To
Jul-18 @ 16:00 UTC
(7 hours ago)
Jul-18 @ 18:00 UTC
(5 hours ago)
Jul-19 @ 18:00 UTC
(in 19 hours)
Jul-18 @ 18:00 to Jul-19 @ 18:00
TAF FALA 181600Z 1818/1918 01005KT CAVOK
Wind Visibility Clouds Conditions
10° at 5 knots 10,000+ meters
  • No significant clouds
Becoming Jul-18 @ 18:00 to Jul-19 @ 18:00
BECMG 1818/1820 VRB03KT TX16/1912Z TN03/1904Z
Wind Visibility Clouds Conditions
Variable at 3 knots 10,000+ meters
  • No significant clouds
TAF FALA 181600Z 1818/1918 01005KT CAVOK BECMG 1818/1820 VRB03KT TX16/1912Z TN03/1904Z
Issued Jul-18 @ 16:00 UTC
(7 hours ago)
Valid From Jul-18 @ 18:00 UTC
(5 hours ago)
Valid To Jul-19 @ 18:00 UTC
(in 19 hours)
Jul-18 @ 18:00 - Jul-19 @ 18:00
Wind Visibility
10° at 5 knots 10,000+ meters
Clouds
  • No significant clouds
Conditions
Becoming Jul-18 @ 18:00 - Jul-19 @ 18:00
Wind Visibility
Variable at 3 knots 10,000+ meters
Clouds
  • No significant clouds
Conditions